sensor_id;sensor_type;location;lat;lon;timestamp;pressure;altitude;pressure_sealevel;temperature;humidity
68456;BME280;55437;55.046;38.838;2023-04-01T00:01:12;98635.09;;;4.64;69.55
68456;BME280;55437;55.046;38.838;2023-04-01T00:03:45;98628.19;;;4.69;69.56
68456;BME280;55437;55.046;38.838;2023-04-01T00:06:14;98623.94;;;4.70;69.38
68456;BME280;55437;55.046;38.838;2023-04-01T00:08:44;98629.84;;;4.70;69.22
68456;BME280;55437;55.046;38.838;2023-04-01T00:11:10;98636.59;;;4.71;68.87
68456;BME280;55437;55.046;38.838;2023-04-01T00:13:38;98634.25;;;4.64;69.04
68456;BME280;55437;55.046;38.838;2023-04-01T00:16:04;98635.84;;;4.68;69.12
68456;BME280;55437;55.046;38.838;2023-04-01T00:18:31;98636.69;;;4.68;69.41
68456;BME280;55437;55.046;38.838;2023-04-01T00:20:57;98643.38;;;4.71;69.09
68456;BME280;55437;55.046;38.838;2023-04-01T00:23:27;98640.06;;;4.69;69.03
68456;BME280;55437;55.046;38.838;2023-04-01T00:25:53;98641.06;;;4.63;69.16
68456;BME280;55437;55.046;38.838;2023-04-01T00:28:19;98639.56;;;4.56;69.09
68456;BME280;55437;55.046;38.838;2023-04-01T00:30:50;98634.56;;;4.53;69.11
68456;BME280;55437;55.046;38.838;2023-04-01T00:33:17;98637.97;;;4.52;68.98
68456;BME280;55437;55.046;38.838;2023-04-01T00:35:43;98641.41;;;4.50;69.10
68456;BME280;55437;55.046;38.838;2023-04-01T00:38:29;98644.88;;;4.47;69.34
68456;BME280;55437;55.046;38.838;2023-04-01T00:40:57;98637.09;;;4.53;68.99
68456;BME280;55437;55.046;38.838;2023-04-01T00:43:25;98646.47;;;4.51;69.04
68456;BME280;55437;55.046;38.838;2023-04-01T00:45:53;98637.22;;;4.49;69.23
68456;BME280;55437;55.046;38.838;2023-04-01T00:48:27;98642.41;;;4.46;69.52
68456;BME280;55437;55.046;38.838;2023-04-01T00:53:23;98626.91;;;4.55;69.39
68456;BME280;55437;55.046;38.838;2023-04-01T00:56:17;98635.13;;;4.63;69.01
68456;BME280;55437;55.046;38.838;2023-04-01T00:58:49;98632.44;;;4.69;69.13
68456;BME280;55437;55.046;38.838;2023-04-01T01:01:19;98633.44;;;4.63;69.21
68456;BME280;55437;55.046;38.838;2023-04-01T01:03:45;98637.63;;;4.64;69.01
68456;BME280;55437;55.046;38.838;2023-04-01T01:11:31;98630.44;;;4.80;69.31
68456;BME280;55437;55.046;38.838;2023-04-01T01:14:33;98630.53;;;4.76;68.96
68456;BME280;55437;55.046;38.838;2023-04-01T01:20:31;98637.06;;;4.84;68.85
68456;BME280;55437;55.046;38.838;2023-04-01T01:26:55;98640.22;;;4.94;68.56
68456;BME280;55437;55.046;38.838;2023-04-01T01:32:58;98640.16;;;4.95;68.48
68456;BME280;55437;55.046;38.838;2023-04-01T01:35:38;98641.22;;;4.88;68.69
68456;BME280;55437;55.046;38.838;2023-04-01T01:38:16;98648.81;;;4.90;68.89
68456;BME280;55437;55.046;38.838;2023-04-01T01:41:17;98652.22;;;4.89;68.83
68456;BME280;55437;55.046;38.838;2023-04-01T01:43:46;98649.53;;;4.95;68.73
68456;BME280;55437;55.046;38.838;2023-04-01T01:46:19;98647.69;;;4.98;68.59
68456;BME280;55437;55.046;38.838;2023-04-01T01:48:51;98644.47;;;4.93;68.42
68456;BME280;55437;55.046;38.838;2023-04-01T01:51:20;98648.69;;;4.94;68.83
68456;BME280;55437;55.046;38.838;2023-04-01T01:53:49;98647.06;;;4.92;68.75
68456;BME280;55437;55.046;38.838;2023-04-01T01:56:23;98647.00;;;4.93;68.98
68456;BME280;55437;55.046;38.838;2023-04-01T01:59:00;98646.13;;;4.94;68.95
68456;BME280;55437;55.046;38.838;2023-04-01T02:01:29;98649.59;;;4.92;68.83
68456;BME280;55437;55.046;38.838;2023-04-01T02:04:05;98646.03;;;4.97;68.84
68456;BME280;55437;55.046;38.838;2023-04-01T02:06:36;98652.75;;;5.00;68.76
68456;BME280;55437;55.046;38.838;2023-04-01T02:09:05;98647.53;;;5.04;68.74
68456;BME280;55437;55.046;38.838;2023-04-01T02:11:43;98642.22;;;5.12;68.57
68456;BME280;55437;55.046;38.838;2023-04-01T02:14:25;98648.09;;;5.14;68.36
68456;BME280;55437;55.046;38.838;2023-04-01T02:19:26;98652.94;;;5.22;68.24
68456;BME280;55437;55.046;38.838;2023-04-01T02:21:57;98654.41;;;5.30;68.31
68456;BME280;55437;55.046;38.838;2023-04-01T02:24:26;98660.19;;;5.35;68.03
68456;BME280;55437;55.046;38.838;2023-04-01T02:26:58;98651.50;;;5.42;67.89
68456;BME280;55437;55.046;38.838;2023-04-01T02:29:26;98657.31;;;5.46;67.51
68456;BME280;55437;55.046;38.838;2023-04-01T02:31:53;98660.75;;;5.45;67.61
68456;BME280;55437;55.046;38.838;2023-04-01T02:34:21;98672.59;;;5.46;67.39
68456;BME280;55437;55.046;38.838;2023-04-01T02:36:49;98667.53;;;5.44;67.75
68456;BME280;55437;55.046;38.838;2023-04-01T02:39:15;98675.09;;;5.48;67.44
68456;BME280;55437;55.046;38.838;2023-04-01T02:41:43;98673.47;;;5.45;67.71
68456;BME280;55437;55.046;38.838;2023-04-01T02:44:12;98675.97;;;5.47;67.71
68456;BME280;55437;55.046;38.838;2023-04-01T02:46:38;98681.03;;;5.48;67.96
68456;BME280;55437;55.046;38.838;2023-04-01T02:49:05;98683.59;;;5.47;67.89
68456;BME280;55437;55.046;38.838;2023-04-01T02:51:32;98685.47;;;5.41;67.94
68456;BME280;55437;55.046;38.838;2023-04-01T02:53:58;98692.16;;;5.44;68.19
68456;BME280;55437;55.046;38.838;2023-04-01T02:56:24;98685.56;;;5.38;68.06
68456;BME280;55437;55.046;38.838;2023-04-01T02:58:54;98686.38;;;5.39;68.06
68456;BME280;55437;55.046;38.838;2023-04-01T03:01:21;98696.50;;;5.42;67.76
68456;BME280;55437;55.046;38.838;2023-04-01T03:03:47;98699.06;;;5.40;68.10
68456;BME280;55437;55.046;38.838;2023-04-01T03:06:36;98698.97;;;5.43;68.00
68456;BME280;55437;55.046;38.838;2023-04-01T03:09:07;98691.44;;;5.40;67.93
68456;BME280;55437;55.046;38.838;2023-04-01T03:11:59;98699.03;;;5.42;67.99
68456;BME280;55437;55.046;38.838;2023-04-01T03:14:27;98694.66;;;5.46;67.80
68456;BME280;55437;55.046;38.838;2023-04-01T03:16:54;98693.75;;;5.48;67.76
68456;BME280;55437;55.046;38.838;2023-04-01T03:19:20;98689.31;;;5.55;67.71
68456;BME280;55437;55.046;38.838;2023-04-01T03:21:48;98688.19;;;5.63;67.62
68456;BME280;55437;55.046;38.838;2023-04-01T03:24:14;98692.16;;;5.72;67.16
68456;BME280;55437;55.046;38.838;2023-04-01T03:26:43;98683.56;;;5.76;67.08
68456;BME280;55437;55.046;38.838;2023-04-01T03:29:09;98689.41;;;5.79;67.22
68456;BME280;55437;55.046;38.838;2023-04-01T03:31:35;98698.69;;;5.80;67.12
68456;BME280;55437;55.046;38.838;2023-04-01T03:34:02;98705.56;;;5.78;67.15
68456;BME280;55437;55.046;38.838;2023-04-01T03:36:54;98700.66;;;5.72;67.27
68456;BME280;55437;55.046;38.838;2023-04-01T03:39:20;98706.53;;;5.74;67.23
68456;BME280;55437;55.046;38.838;2023-04-01T03:42:14;98706.91;;;5.62;67.34
68456;BME280;55437;55.046;38.838;2023-04-01T03:44:48;98718.72;;;5.65;67.74
68456;BME280;55437;55.046;38.838;2023-04-01T03:47:15;98717.00;;;5.65;67.72
68456;BME280;55437;55.046;38.838;2023-04-01T03:49:44;98722.94;;;5.66;67.64
68456;BME280;55437;55.046;38.838;2023-04-01T03:52:11;98723.63;;;5.71;67.39
68456;BME280;55437;55.046;38.838;2023-04-01T03:55:04;98720.97;;;5.74;67.19
68456;BME280;55437;55.046;38.838;2023-04-01T03:57:34;98726.41;;;5.63;67.32
68456;BME280;55437;55.046;38.838;2023-04-01T04:00:37;98731.69;;;5.56;67.67
68456;BME280;55437;55.046;38.838;2023-04-01T04:03:03;98736.03;;;5.54;67.73
68456;BME280;55437;55.046;38.838;2023-04-01T04:05:33;98738.56;;;5.54;68.10
68456;BME280;55437;55.046;38.838;2023-04-01T04:08:00;98742.72;;;5.56;67.77
68456;BME280;55437;55.046;38.838;2023-04-01T04:10:25;98740.72;;;5.67;67.69
68456;BME280;55437;55.046;38.838;2023-04-01T04:12:53;98737.25;;;5.68;67.38
68456;BME280;55437;55.046;38.838;2023-04-01T04:15:23;98739.56;;;5.77;67.50
68456;BME280;55437;55.046;38.838;2023-04-01T04:17:51;98751.50;;;5.75;67.32
68456;BME280;55437;55.046;38.838;2023-04-01T04:20:17;98745.75;;;5.69;67.64
68456;BME280;55437;55.046;38.838;2023-04-01T04:22:45;98755.09;;;5.68;67.95
68456;BME280;55437;55.046;38.838;2023-04-01T04:25:15;98747.31;;;5.73;67.69
68456;BME280;55437;55.046;38.838;2023-04-01T04:27:41;98749.63;;;5.80;67.54
68456;BME280;55437;55.046;38.838;2023-04-01T04:30:12;98755.44;;;5.86;67.79
68456;BME280;55437;55.046;38.838;2023-04-01T04:32:43;98750.97;;;5.94;67.35
68456;BME280;55437;55.046;38.838;2023-04-01T04:35:11;98750.91;;;5.95;67.35
68456;BME280;55437;55.046;38.838;2023-04-01T04:38:03;98747.41;;;5.99;67.28
68456;BME280;55437;55.046;38.838;2023-04-01T04:40:31;98754.16;;;6.00;67.29
68456;BME280;55437;55.046;38.838;2023-04-01T04:42:57;98747.16;;;6.07;67.36
68456;BME280;55437;55.046;38.838;2023-04-01T04:45:24;98749.91;;;6.01;67.22
68456;BME280;55437;55.046;38.838;2023-04-01T04:47:54;98749.94;;;5.99;67.50
68456;BME280;55437;55.046;38.838;2023-04-01T04:50:22;98755.84;;;6.01;67.28
68456;BME280;55437;55.046;38.838;2023-04-01T04:52:50;98758.22;;;6.06;67.13
68456;BME280;55437;55.046;38.838;2023-04-01T04:55:18;98760.66;;;6.10;67.01
68456;BME280;55437;55.046;38.838;2023-04-01T04:57:49;98767.38;;;6.13;66.91
68456;BME280;55437;55.046;38.838;2023-04-01T05:00:16;98776.56;;;6.17;67.02
68456;BME280;55437;55.046;38.838;2023-04-01T05:02:49;98768.16;;;6.15;67.10
68456;BME280;55437;55.046;38.838;2023-04-01T05:05:16;98771.59;;;6.14;67.05
68456;BME280;55437;55.046;38.838;2023-04-01T05:07:44;98774.25;;;6.09;67.16
68456;BME280;55437;55.046;38.838;2023-04-01T05:10:11;98782.75;;;6.10;67.27
68456;BME280;55437;55.046;38.838;2023-04-01T05:12:38;98783.72;;;6.06;67.07
68456;BME280;55437;55.046;38.838;2023-04-01T05:15:31;98786.03;;;6.13;67.01
68456;BME280;55437;55.046;38.838;2023-04-01T05:18:05;98783.06;;;6.27;66.73
68456;BME280;55437;55.046;38.838;2023-04-01T05:20:55;98790.25;;;6.41;66.25
68456;BME280;55437;55.046;38.838;2023-04-01T05:23:22;98793.59;;;6.43;66.54
68456;BME280;55437;55.046;38.838;2023-04-01T05:25:49;98791.44;;;6.31;66.84
68456;BME280;55437;55.046;38.838;2023-04-01T05:28:18;98794.72;;;6.34;66.90
68456;BME280;55437;55.046;38.838;2023-04-01T05:30:46;98798.59;;;6.46;66.47
68456;BME280;55437;55.046;38.838;2023-04-01T05:33:21;98797.38;;;6.58;66.49
68456;BME280;55437;55.046;38.838;2023-04-01T05:35:48;98797.28;;;6.61;66.32
68456;BME280;55437;55.046;38.838;2023-04-01T05:38:14;98801.47;;;6.63;66.26
68456;BME280;55437;55.046;38.838;2023-04-01T05:40:45;98805.25;;;6.52;66.41
68456;BME280;55437;55.046;38.838;2023-04-01T05:43:11;98806.03;;;6.52;66.54
68456;BME280;55437;55.046;38.838;2023-04-01T05:45:38;98804.72;;;6.67;66.49
68456;BME280;55437;55.046;38.838;2023-04-01T05:48:16;98805.66;;;6.89;65.97
68456;BME280;55437;55.046;38.838;2023-04-01T05:50:41;98808.22;;;6.89;65.69
68456;BME280;55437;55.046;38.838;2023-04-01T05:53:33;98807.81;;;7.01;65.64
68456;BME280;55437;55.046;38.838;2023-04-01T05:56:03;98812.50;;;7.13;65.23
68456;BME280;55437;55.046;38.838;2023-04-01T05:58:35;98813.97;;;7.20;65.28
68456;BME280;55437;55.046;38.838;2023-04-01T06:01:05;98818.06;;;7.24;64.81
68456;BME280;55437;55.046;38.838;2023-04-01T06:03:32;98819.06;;;7.20;64.73
68456;BME280;55437;55.046;38.838;2023-04-01T06:05:58;98830.13;;;7.21;65.05
68456;BME280;55437;55.046;38.838;2023-04-01T06:08:31;98842.72;;;7.26;65.05
68456;BME280;55437;55.046;38.838;2023-04-01T06:25:24;98851.25;;;7.24;64.85
68456;BME280;55437;55.046;38.838;2023-04-01T06:39:48;98852.81;;;7.53;64.28
68456;BME280;55437;55.046;38.838;2023-04-01T06:46:02;98856.38;;;7.73;63.91
68456;BME280;55437;55.046;38.838;2023-04-01T06:54:14;98860.03;;;7.89;63.50
68456;BME280;55437;55.046;38.838;2023-04-01T06:57:39;98860.38;;;8.03;63.86
68456;BME280;55437;55.046;38.838;2023-04-01T07:00:30;98869.13;;;8.19;63.25
68456;BME280;55437;55.046;38.838;2023-04-01T07:03:15;98868.09;;;8.23;62.81
68456;BME280;55437;55.046;38.838;2023-04-01T07:05:43;98869.84;;;8.23;62.82
68456;BME280;55437;55.046;38.838;2023-04-01T07:08:21;98878.75;;;8.36;62.50
68456;BME280;55437;55.046;38.838;2023-04-01T07:11:03;98880.88;;;8.47;62.12
68456;BME280;55437;55.046;38.838;2023-04-01T07:14:13;98877.56;;;8.45;62.12
68456;BME280;55437;55.046;38.838;2023-04-01T07:16:56;98883.69;;;8.41;62.62
68456;BME280;55437;55.046;38.838;2023-04-01T07:19:33;98884.41;;;8.44;62.49
68456;BME280;55437;55.046;38.838;2023-04-01T07:22:18;98888.84;;;8.39;62.53
68456;BME280;55437;55.046;38.838;2023-04-01T07:25:12;98882.50;;;8.26;62.71
68456;BME280;55437;55.046;38.838;2023-04-01T07:27:38;98896.94;;;8.05;62.83
68456;BME280;55437;55.046;38.838;2023-04-01T07:30:18;98903.22;;;7.97;63.19
68456;BME280;55437;55.046;38.838;2023-04-01T07:33:04;98899.50;;;8.05;63.13
68456;BME280;55437;55.046;38.838;2023-04-01T07:35:44;98905.81;;;8.18;62.89
68456;BME280;55437;55.046;38.838;2023-04-01T07:51:10;98926.47;;;7.89;63.40
68456;BME280;55437;55.046;38.838;2023-04-01T07:56:28;98925.81;;;7.61;63.56
68456;BME280;55437;55.046;38.838;2023-04-01T07:59:09;98930.28;;;7.54;63.80
68456;BME280;55437;55.046;38.838;2023-04-01T08:19:51;98946.25;;;8.77;62.04
68456;BME280;55437;55.046;38.838;2023-04-01T08:25:04;98957.00;;;8.63;61.81
68456;BME280;55437;55.046;38.838;2023-04-01T08:27:46;98953.91;;;8.55;61.96
68456;BME280;55437;55.046;38.838;2023-04-01T08:30:35;98966.44;;;8.40;62.05
68456;BME280;55437;55.046;38.838;2023-04-01T08:33:44;98970.59;;;8.42;61.86
68456;BME280;55437;55.046;38.838;2023-04-01T08:36:16;98977.09;;;8.51;61.91
68456;BME280;55437;55.046;38.838;2023-04-01T08:38:51;98977.88;;;8.53;61.80
68456;BME280;55437;55.046;38.838;2023-04-01T09:08:31;98998.75;;;8.87;60.56
68456;BME280;55437;55.046;38.838;2023-04-01T09:12:00;99012.44;;;8.86;60.83
68456;BME280;55437;55.046;38.838;2023-04-01T09:17:29;99007.50;;;9.03;60.27
68456;BME280;55437;55.046;38.838;2023-04-01T09:20:17;99007.56;;;9.02;60.51
68456;BME280;55437;55.046;38.838;2023-04-01T09:25:50;99008.31;;;9.26;59.93
68456;BME280;55437;55.046;38.838;2023-04-01T09:31:20;99012.41;;;9.72;59.16
68456;BME280;55437;55.046;38.838;2023-04-01T09:44:48;99021.66;;;9.76;59.18
68456;BME280;55437;55.046;38.838;2023-04-01T09:50:26;99026.25;;;10.08;58.49
68456;BME280;55437;55.046;38.838;2023-04-01T09:56:01;99042.88;;;10.20;58.06
68456;BME280;55437;55.046;38.838;2023-04-01T10:16:19;99045.41;;;10.78;56.51
68456;BME280;55437;55.046;38.838;2023-04-01T10:24:25;99052.59;;;10.71;55.48
68456;BME280;55437;55.046;38.838;2023-04-01T10:43:52;99061.09;;;10.53;55.66
68456;BME280;55437;55.046;38.838;2023-04-01T11:11:34;99063.75;;;10.70;54.08
68456;BME280;55437;55.046;38.838;2023-04-01T11:17:36;99070.69;;;11.06;54.28
68456;BME280;55437;55.046;38.838;2023-04-01T11:23:27;99072.81;;;11.15;53.06
68456;BME280;55437;55.046;38.838;2023-04-01T11:29:08;99073.00;;;10.74;53.40
68456;BME280;55437;55.046;38.838;2023-04-01T11:37:19;99073.88;;;10.73;53.71
68456;BME280;55437;55.046;38.838;2023-04-01T11:40:27;99069.22;;;10.81;53.45
68456;BME280;55437;55.046;38.838;2023-04-01T11:43:38;99072.56;;;11.02;52.62
68456;BME280;55437;55.046;38.838;2023-04-01T12:10:06;99085.41;;;11.38;52.92
68456;BME280;55437;55.046;38.838;2023-04-01T12:12:48;99073.91;;;11.28;52.64
68456;BME280;55437;55.046;38.838;2023-04-01T12:24:23;99077.22;;;10.94;52.80
68456;BME280;55437;55.046;38.838;2023-04-01T12:30:04;99075.47;;;10.95;53.59
68456;BME280;55437;55.046;38.838;2023-04-01T12:38:01;99085.41;;;10.83;53.45
68456;BME280;55437;55.046;38.838;2023-04-01T12:40:45;99091.03;;;10.73;53.81
68456;BME280;55437;55.046;38.838;2023-04-01T13:17:53;99107.97;;;10.38;56.67
68456;BME280;55437;55.046;38.838;2023-04-01T13:23:52;99097.56;;;10.41;56.68
68456;BME280;55437;55.046;38.838;2023-04-01T13:29:36;99109.25;;;10.48;56.10
68456;BME280;55437;55.046;38.838;2023-04-01T13:43:30;99131.81;;;10.20;57.37
68456;BME280;55437;55.046;38.838;2023-04-01T14:09:01;99150.91;;;9.91;59.82
68456;BME280;55437;55.046;38.838;2023-04-01T14:12:06;99155.41;;;9.86;60.20
68456;BME280;55437;55.046;38.838;2023-04-01T14:23:06;99165.78;;;9.83;60.16
68456;BME280;55437;55.046;38.838;2023-04-01T14:26:00;99175.97;;;9.84;60.01
68456;BME280;55437;55.046;38.838;2023-04-01T14:28:54;99172.94;;;9.74;60.73
68456;BME280;55437;55.046;38.838;2023-04-01T14:31:54;99178.13;;;9.73;60.88
68456;BME280;55437;55.046;38.838;2023-04-01T14:47:46;99202.47;;;9.85;61.04
68456;BME280;55437;55.046;38.838;2023-04-01T14:50:19;99207.81;;;9.79;60.80
68456;BME280;55437;55.046;38.838;2023-04-01T14:52:57;99208.59;;;9.81;61.14
68456;BME280;55437;55.046;38.838;2023-04-01T14:55:34;99206.28;;;9.74;61.33
68456;BME280;55437;55.046;38.838;2023-04-01T14:58:17;99206.38;;;9.71;61.40
68456;BME280;55437;55.046;38.838;2023-04-01T15:12:29;99224.31;;;9.50;61.99
68456;BME280;55437;55.046;38.838;2023-04-01T15:31:40;99237.81;;;9.07;63.73
68456;BME280;55437;55.046;38.838;2023-04-01T15:34:44;99243.09;;;9.03;63.55
68456;BME280;55437;55.046;38.838;2023-04-01T15:42:56;99247.78;;;8.91;64.84
68456;BME280;55437;55.046;38.838;2023-04-01T15:50:34;99265.53;;;8.71;65.63
68456;BME280;55437;55.046;38.838;2023-04-01T15:53:11;99262.03;;;8.73;65.52
68456;BME280;55437;55.046;38.838;2023-04-01T15:55:59;99272.91;;;8.80;65.16
68456;BME280;55437;55.046;38.838;2023-04-01T15:58:45;99263.44;;;8.82;65.32
68456;BME280;55437;55.046;38.838;2023-04-01T16:01:26;99267.84;;;8.78;65.77
68456;BME280;55437;55.046;38.838;2023-04-01T16:04:36;99273.69;;;8.82;65.48
68456;BME280;55437;55.046;38.838;2023-04-01T16:07:28;99265.03;;;8.86;65.63
68456;BME280;55437;55.046;38.838;2023-04-01T16:12:41;99283.56;;;8.68;65.92
68456;BME280;55437;55.046;38.838;2023-04-01T16:15:29;99278.31;;;8.71;66.24
68456;BME280;55437;55.046;38.838;2023-04-01T16:18:14;99281.69;;;8.73;65.87
68456;BME280;55437;55.046;38.838;2023-04-01T16:29:46;99286.97;;;8.68;66.40
68456;BME280;55437;55.046;38.838;2023-04-01T16:32:22;99293.91;;;8.64;66.72
68456;BME280;55437;55.046;38.838;2023-04-01T16:37:41;99300.00;;;8.60;67.05
68456;BME280;55437;55.046;38.838;2023-04-01T16:42:49;99300.66;;;8.67;66.96
68456;BME280;55437;55.046;38.838;2023-04-01T16:51:04;99317.06;;;8.60;67.43
68456;BME280;55437;55.046;38.838;2023-04-01T16:53:47;99317.31;;;8.52;67.96
68456;BME280;55437;55.046;38.838;2023-04-01T17:01:57;99324.50;;;8.41;68.93
68456;BME280;55437;55.046;38.838;2023-04-01T17:15:49;99342.53;;;8.37;69.68
68456;BME280;55437;55.046;38.838;2023-04-01T17:18:47;99334.03;;;8.36;69.63
68456;BME280;55437;55.046;38.838;2023-04-01T17:24:32;99352.72;;;8.38;69.95
68456;BME280;55437;55.046;38.838;2023-04-01T17:27:50;99351.94;;;8.36;69.66
68456;BME280;55437;55.046;38.838;2023-04-01T17:33:06;99356.53;;;8.53;71.05
68456;BME280;55437;55.046;38.838;2023-04-01T17:35:39;99353.66;;;8.63;71.21
68456;BME280;55437;55.046;38.838;2023-04-01T17:44:34;99354.78;;;8.81;72.55
68456;BME280;55437;55.046;38.838;2023-04-01T17:49:53;99357.09;;;8.89;71.90
68456;BME280;55437;55.046;38.838;2023-04-01T17:52:37;99355.31;;;8.91;71.64
68456;BME280;55437;55.046;38.838;2023-04-01T18:04:08;99372.00;;;8.76;69.69
68456;BME280;55437;55.046;38.838;2023-04-01T18:12:35;99375.41;;;8.77;69.46
68456;BME280;55437;55.046;38.838;2023-04-01T18:15:16;99388.13;;;8.80;69.28
68456;BME280;55437;55.046;38.838;2023-04-01T18:24:28;99389.38;;;8.66;69.63
68456;BME280;55437;55.046;38.838;2023-04-01T18:27:30;99398.63;;;8.71;69.37
68456;BME280;55437;55.046;38.838;2023-04-01T18:30:11;99403.09;;;8.64;69.67
68456;BME280;55437;55.046;38.838;2023-04-01T18:37:51;99405.47;;;8.70;69.66
68456;BME280;55437;55.046;38.838;2023-04-01T18:43:18;99406.47;;;8.66;69.88
68456;BME280;55437;55.046;38.838;2023-04-01T18:46:16;99396.31;;;8.63;70.05
68456;BME280;55437;55.046;38.838;2023-04-01T18:48:56;99390.25;;;8.65;69.85
68456;BME280;55437;55.046;38.838;2023-04-01T18:51:52;99390.25;;;8.65;69.87
68456;BME280;55437;55.046;38.838;2023-04-01T19:00:49;99389.34;;;8.68;70.06
68456;BME280;55437;55.046;38.838;2023-04-01T19:03:33;99391.94;;;8.66;70.16
68456;BME280;55437;55.046;38.838;2023-04-01T19:06:15;99406.63;;;8.60;70.28
68456;BME280;55437;55.046;38.838;2023-04-01T19:08:44;99400.69;;;8.59;70.29
68456;BME280;55437;55.046;38.838;2023-04-01T19:11:36;99404.78;;;8.65;70.29
68456;BME280;55437;55.046;38.838;2023-04-01T19:14:30;99412.38;;;8.68;70.28
68456;BME280;55437;55.046;38.838;2023-04-01T19:17:10;99413.09;;;8.72;69.95
68456;BME280;55437;55.046;38.838;2023-04-01T19:25:40;99417.75;;;8.87;69.56
68456;BME280;55437;55.046;38.838;2023-04-01T19:44:07;99416.84;;;8.88;69.39
68456;BME280;55437;55.046;38.838;2023-04-01T19:46:48;99416.84;;;8.88;69.53
68456;BME280;55437;55.046;38.838;2023-04-01T19:52:23;99414.09;;;8.94;69.22
68456;BME280;55437;55.046;38.838;2023-04-01T20:01:20;99423.19;;;8.76;69.71
68456;BME280;55437;55.046;38.838;2023-04-01T20:03:54;99418.22;;;8.72;70.06
68456;BME280;55437;55.046;38.838;2023-04-01T20:12:36;99426.69;;;8.74;69.80
68456;BME280;55437;55.046;38.838;2023-04-01T20:15:36;99429.50;;;8.66;70.38
68456;BME280;55437;55.046;38.838;2023-04-01T20:18:16;99436.53;;;8.58;70.45
68456;BME280;55437;55.046;38.838;2023-04-01T20:21:06;99442.63;;;8.55;70.84
68456;BME280;55437;55.046;38.838;2023-04-01T20:23:58;99448.78;;;8.48;70.79
68456;BME280;55437;55.046;38.838;2023-04-01T20:26:32;99445.38;;;8.48;70.76
68456;BME280;55437;55.046;38.838;2023-04-01T20:37:39;99454.09;;;8.42;71.18
68456;BME280;55437;55.046;38.838;2023-04-01T20:43:03;99459.94;;;8.46;71.36
68456;BME280;55437;55.046;38.838;2023-04-01T20:48:31;99459.09;;;8.45;71.30
68456;BME280;55437;55.046;38.838;2023-04-01T20:51:14;99454.09;;;8.42;71.48
68456;BME280;55437;55.046;38.838;2023-04-01T21:03:12;99472.72;;;8.46;71.23
68456;BME280;55437;55.046;38.838;2023-04-01T21:17:37;99479.69;;;8.70;70.78
68456;BME280;55437;55.046;38.838;2023-04-01T21:31:29;99478.34;;;8.86;70.03
68456;BME280;55437;55.046;38.838;2023-04-01T21:39:53;99486.88;;;8.87;70.24
68456;BME280;55437;55.046;38.838;2023-04-01T21:48:27;99486.03;;;8.86;70.58
68456;BME280;55437;55.046;38.838;2023-04-01T22:05:36;99510.69;;;8.89;70.54
68456;BME280;55437;55.046;38.838;2023-04-01T22:14:19;99503.53;;;9.00;70.05
68456;BME280;55437;55.046;38.838;2023-04-01T22:17:23;99503.63;;;8.97;70.10
68456;BME280;55437;55.046;38.838;2023-04-01T22:26:05;99522.41;;;8.96;70.17
68456;BME280;55437;55.046;38.838;2023-04-01T22:34:22;99536.94;;;8.95;70.55
68456;BME280;55437;55.046;38.838;2023-04-01T22:36:59;99532.78;;;8.93;70.37
68456;BME280;55437;55.046;38.838;2023-04-01T22:39:40;99534.63;;;8.88;70.72
68456;BME280;55437;55.046;38.838;2023-04-01T22:52:55;99531.97;;;8.61;71.37
68456;BME280;55437;55.046;38.838;2023-04-01T22:55:32;99532.94;;;8.57;71.83
68456;BME280;55437;55.046;38.838;2023-04-01T22:58:15;99528.53;;;8.62;71.34
68456;BME280;55437;55.046;38.838;2023-04-01T23:00:54;99528.53;;;8.62;71.27
68456;BME280;55437;55.046;38.838;2023-04-01T23:03:23;99529.34;;;8.64;71.42
68456;BME280;55437;55.046;38.838;2023-04-01T23:05:56;99526.22;;;8.55;71.37
68456;BME280;55437;55.046;38.838;2023-04-01T23:11:04;99520.88;;;8.62;71.59
68456;BME280;55437;55.046;38.838;2023-04-01T23:13:39;99520.91;;;8.61;71.79
68456;BME280;55437;55.046;38.838;2023-04-01T23:16:08;99530.53;;;8.53;71.66
68456;BME280;55437;55.046;38.838;2023-04-01T23:21:54;99533.75;;;8.59;71.63
68456;BME280;55437;55.046;38.838;2023-04-01T23:24:36;99532.91;;;8.59;71.59
68456;BME280;55437;55.046;38.838;2023-04-01T23:27:23;99537.28;;;8.55;71.46
68456;BME280;55437;55.046;38.838;2023-04-01T23:29:53;99539.81;;;8.57;71.43
68456;BME280;55437;55.046;38.838;2023-04-01T23:32:23;99538.34;;;8.48;71.68
68456;BME280;55437;55.046;38.838;2023-04-01T23:34:54;99546.00;;;8.48;71.65
68456;BME280;55437;55.046;38.838;2023-04-01T23:37:22;99547.94;;;8.40;71.79
68456;BME280;55437;55.046;38.838;2023-04-01T23:39:58;99550.47;;;8.42;71.85
68456;BME280;55437;55.046;38.838;2023-04-01T23:42:31;99547.84;;;8.45;71.88
68456;BME280;55437;55.046;38.838;2023-04-01T23:45:01;99547.03;;;8.43;71.87
68456;BME280;55437;55.046;38.838;2023-04-01T23:47:36;99548.75;;;8.42;71.67
68456;BME280;55437;55.046;38.838;2023-04-01T23:50:07;99550.31;;;8.46;71.72
68456;BME280;55437;55.046;38.838;2023-04-01T23:52:41;99554.59;;;8.46;71.98
68456;BME280;55437;55.046;38.838;2023-04-01T23:57:38;99554.66;;;8.44;71.94
